sensor_id;sensor_type;location;lat;lon;timestamp;P1;durP1;ratioP1;P2;durP2;ratioP2
10142;SDS011;5112;54.088;13.446;2024-03-08T00:07:36;9.03;;;7.00;;
10142;SDS011;5112;54.088;13.446;2024-03-08T00:17:39;8.63;;;7.23;;
10142;SDS011;5112;54.088;13.446;2024-03-08T00:27:41;9.03;;;7.50;;
10142;SDS011;5112;54.088;13.446;2024-03-08T00:37:44;12.83;;;9.00;;
10142;SDS011;5112;54.088;13.446;2024-03-08T00:47:46;12.80;;;9.43;;
10142;SDS011;5112;54.088;13.446;2024-03-08T00:57:49;13.23;;;9.80;;
10142;SDS011;5112;54.088;13.446;2024-03-08T01:07:51;14.60;;;9.70;;
10142;SDS011;5112;54.088;13.446;2024-03-08T01:17:54;16.27;;;10.93;;
10142;SDS011;5112;54.088;13.446;2024-03-08T01:27:55;17.23;;;11.77;;
10142;SDS011;5112;54.088;13.446;2024-03-08T01:37:58;16.47;;;11.23;;
10142;SDS011;5112;54.088;13.446;2024-03-08T01:48:00;19.37;;;11.87;;
10142;SDS011;5112;54.088;13.446;2024-03-08T01:58:03;19.60;;;13.80;;
10142;SDS011;5112;54.088;13.446;2024-03-08T02:08:06;20.47;;;13.40;;
10142;SDS011;5112;54.088;13.446;2024-03-08T02:18:13;19.23;;;13.83;;
10142;SDS011;5112;54.088;13.446;2024-03-08T02:28:17;17.83;;;13.90;;
10142;SDS011;5112;54.088;13.446;2024-03-08T02:38:19;14.97;;;11.50;;
10142;SDS011;5112;54.088;13.446;2024-03-08T02:48:23;18.13;;;13.97;;
10142;SDS011;5112;54.088;13.446;2024-03-08T02:58:25;16.47;;;12.23;;
10142;SDS011;5112;54.088;13.446;2024-03-08T03:08:28;20.80;;;14.50;;
10142;SDS011;5112;54.088;13.446;2024-03-08T03:18:30;20.40;;;13.93;;
10142;SDS011;5112;54.088;13.446;2024-03-08T03:28:34;22.57;;;15.20;;
10142;SDS011;5112;54.088;13.446;2024-03-08T03:38:39;18.73;;;14.10;;
10142;SDS011;5112;54.088;13.446;2024-03-08T03:48:42;20.80;;;14.70;;
10142;SDS011;5112;54.088;13.446;2024-03-08T03:58:43;17.67;;;13.97;;
10142;SDS011;5112;54.088;13.446;2024-03-08T04:08:46;21.10;;;14.13;;
10142;SDS011;5112;54.088;13.446;2024-03-08T04:18:48;20.47;;;14.43;;
10142;SDS011;5112;54.088;13.446;2024-03-08T04:28:52;20.20;;;14.43;;
10142;SDS011;5112;54.088;13.446;2024-03-08T04:38:53;21.10;;;14.80;;
10142;SDS011;5112;54.088;13.446;2024-03-08T04:48:56;19.10;;;13.10;;
10142;SDS011;5112;54.088;13.446;2024-03-08T04:58:58;17.30;;;12.20;;
10142;SDS011;5112;54.088;13.446;2024-03-08T05:09:01;18.00;;;13.90;;
10142;SDS011;5112;54.088;13.446;2024-03-08T05:19:13;21.43;;;15.27;;
10142;SDS011;5112;54.088;13.446;2024-03-08T05:29:18;23.07;;;16.07;;
10142;SDS011;5112;54.088;13.446;2024-03-08T05:39:19;23.10;;;15.53;;
10142;SDS011;5112;54.088;13.446;2024-03-08T05:49:22;19.20;;;14.27;;
10142;SDS011;5112;54.088;13.446;2024-03-08T05:59:25;19.87;;;15.23;;
10142;SDS011;5112;54.088;13.446;2024-03-08T06:09:28;19.07;;;14.07;;
10142;SDS011;5112;54.088;13.446;2024-03-08T06:19:30;19.17;;;13.60;;
10142;SDS011;5112;54.088;13.446;2024-03-08T06:29:32;16.83;;;12.57;;
10142;SDS011;5112;54.088;13.446;2024-03-08T06:39:34;19.23;;;13.40;;
10142;SDS011;5112;54.088;13.446;2024-03-08T06:49:37;17.07;;;13.57;;
10142;SDS011;5112;54.088;13.446;2024-03-08T06:59:39;19.03;;;14.03;;
10142;SDS011;5112;54.088;13.446;2024-03-08T07:09:44;20.03;;;14.43;;
10142;SDS011;5112;54.088;13.446;2024-03-08T07:19:46;19.17;;;14.57;;
10142;SDS011;5112;54.088;13.446;2024-03-08T07:29:49;21.70;;;15.37;;
10142;SDS011;5112;54.088;13.446;2024-03-08T07:39:51;22.93;;;16.73;;
10142;SDS011;5112;54.088;13.446;2024-03-08T07:49:54;26.67;;;18.80;;
10142;SDS011;5112;54.088;13.446;2024-03-08T07:59:55;23.83;;;17.73;;
10142;SDS011;5112;54.088;13.446;2024-03-08T08:09:58;25.60;;;18.90;;
10142;SDS011;5112;54.088;13.446;2024-03-08T08:20:00;22.90;;;18.07;;
10142;SDS011;5112;54.088;13.446;2024-03-08T08:30:07;25.67;;;19.50;;
10142;SDS011;5112;54.088;13.446;2024-03-08T08:40:09;26.03;;;18.97;;
10142;SDS011;5112;54.088;13.446;2024-03-08T08:50:15;29.57;;;19.30;;
10142;SDS011;5112;54.088;13.446;2024-03-08T09:00:22;24.03;;;17.97;;
10142;SDS011;5112;54.088;13.446;2024-03-08T09:10:28;23.10;;;17.37;;
10142;SDS011;5112;54.088;13.446;2024-03-08T09:20:29;25.17;;;18.10;;
10142;SDS011;5112;54.088;13.446;2024-03-08T09:30:33;23.27;;;18.43;;
10142;SDS011;5112;54.088;13.446;2024-03-08T09:40:35;22.13;;;17.07;;
10142;SDS011;5112;54.088;13.446;2024-03-08T09:50:40;28.17;;;18.50;;
10142;SDS011;5112;54.088;13.446;2024-03-08T10:00:42;19.20;;;15.47;;
10142;SDS011;5112;54.088;13.446;2024-03-08T10:10:45;18.87;;;15.47;;
10142;SDS011;5112;54.088;13.446;2024-03-08T10:20:47;18.90;;;14.40;;
10142;SDS011;5112;54.088;13.446;2024-03-08T10:31:06;20.77;;;15.93;;
10142;SDS011;5112;54.088;13.446;2024-03-08T10:41:08;18.93;;;14.57;;
10142;SDS011;5112;54.088;13.446;2024-03-08T10:51:11;18.43;;;15.33;;
10142;SDS011;5112;54.088;13.446;2024-03-08T11:01:13;17.73;;;15.23;;
10142;SDS011;5112;54.088;13.446;2024-03-08T11:11:26;19.40;;;13.63;;
10142;SDS011;5112;54.088;13.446;2024-03-08T11:21:30;17.13;;;13.63;;
10142;SDS011;5112;54.088;13.446;2024-03-08T11:31:34;14.87;;;13.27;;
10142;SDS011;5112;54.088;13.446;2024-03-08T11:41:36;15.30;;;12.90;;
10142;SDS011;5112;54.088;13.446;2024-03-08T11:51:40;14.10;;;12.60;;
10142;SDS011;5112;54.088;13.446;2024-03-08T12:01:42;19.50;;;14.30;;
10142;SDS011;5112;54.088;13.446;2024-03-08T12:11:45;17.97;;;14.30;;
10142;SDS011;5112;54.088;13.446;2024-03-08T12:21:48;15.90;;;12.70;;
10142;SDS011;5112;54.088;13.446;2024-03-08T12:31:52;16.53;;;14.03;;
10142;SDS011;5112;54.088;13.446;2024-03-08T12:41:55;16.43;;;13.10;;
10142;SDS011;5112;54.088;13.446;2024-03-08T12:51:59;16.20;;;13.67;;
10142;SDS011;5112;54.088;13.446;2024-03-08T13:02:01;17.17;;;13.23;;
10142;SDS011;5112;54.088;13.446;2024-03-08T13:12:04;15.93;;;12.50;;
10142;SDS011;5112;54.088;13.446;2024-03-08T13:22:06;14.27;;;12.73;;
10142;SDS011;5112;54.088;13.446;2024-03-08T13:32:13;16.17;;;13.40;;
10142;SDS011;5112;54.088;13.446;2024-03-08T13:42:15;14.87;;;11.93;;
10142;SDS011;5112;54.088;13.446;2024-03-08T13:52:18;14.00;;;11.93;;
10142;SDS011;5112;54.088;13.446;2024-03-08T14:02:20;16.13;;;12.83;;
10142;SDS011;5112;54.088;13.446;2024-03-08T14:12:26;14.67;;;11.67;;
10142;SDS011;5112;54.088;13.446;2024-03-08T14:22:27;13.97;;;11.73;;
10142;SDS011;5112;54.088;13.446;2024-03-08T14:32:32;16.50;;;11.37;;
10142;SDS011;5112;54.088;13.446;2024-03-08T14:42:37;13.37;;;10.93;;
10142;SDS011;5112;54.088;13.446;2024-03-08T14:52:44;14.40;;;10.97;;
10142;SDS011;5112;54.088;13.446;2024-03-08T15:02:46;15.43;;;11.90;;
10142;SDS011;5112;54.088;13.446;2024-03-08T15:12:49;19.20;;;12.50;;
10142;SDS011;5112;54.088;13.446;2024-03-08T15:22:55;13.50;;;11.30;;
10142;SDS011;5112;54.088;13.446;2024-03-08T15:32:59;11.93;;;9.70;;
10142;SDS011;5112;54.088;13.446;2024-03-08T15:43:03;14.07;;;10.57;;
10142;SDS011;5112;54.088;13.446;2024-03-08T15:53:06;14.80;;;11.13;;
10142;SDS011;5112;54.088;13.446;2024-03-08T16:03:08;16.03;;;12.17;;
10142;SDS011;5112;54.088;13.446;2024-03-08T16:13:13;15.60;;;10.37;;
10142;SDS011;5112;54.088;13.446;2024-03-08T16:23:15;16.00;;;11.23;;
10142;SDS011;5112;54.088;13.446;2024-03-08T16:33:18;16.90;;;11.90;;
10142;SDS011;5112;54.088;13.446;2024-03-08T16:43:20;14.33;;;11.10;;
10142;SDS011;5112;54.088;13.446;2024-03-08T16:53:23;13.37;;;10.70;;
10142;SDS011;5112;54.088;13.446;2024-03-08T17:03:25;12.20;;;10.43;;
10142;SDS011;5112;54.088;13.446;2024-03-08T17:13:28;13.20;;;9.00;;
10142;SDS011;5112;54.088;13.446;2024-03-08T17:23:31;10.40;;;9.30;;
10142;SDS011;5112;54.088;13.446;2024-03-08T17:33:35;11.13;;;9.75;;
10142;SDS011;5112;54.088;13.446;2024-03-08T17:43:37;8.95;;;8.05;;
10142;SDS011;5112;54.088;13.446;2024-03-08T17:53:40;10.20;;;8.37;;
10142;SDS011;5112;54.088;13.446;2024-03-08T18:03:44;14.70;;;13.20;;
10142;SDS011;5112;54.088;13.446;2024-03-08T18:13:47;15.90;;;13.80;;
10142;SDS011;5112;54.088;13.446;2024-03-08T18:23:51;19.93;;;13.77;;
10142;SDS011;5112;54.088;13.446;2024-03-08T18:33:54;16.70;;;15.00;;
10142;SDS011;5112;54.088;13.446;2024-03-08T18:43:55;19.17;;;16.38;;
10142;SDS011;5112;54.088;13.446;2024-03-08T18:53:58;12.83;;;10.63;;
10142;SDS011;5112;54.088;13.446;2024-03-08T19:04:00;13.25;;;10.82;;
10142;SDS011;5112;54.088;13.446;2024-03-08T19:14:05;9.73;;;8.63;;
10142;SDS011;5112;54.088;13.446;2024-03-08T19:24:06;11.60;;;10.27;;
10142;SDS011;5112;54.088;13.446;2024-03-08T19:34:10;10.67;;;9.47;;
10142;SDS011;5112;54.088;13.446;2024-03-08T19:44:12;11.23;;;9.57;;
10142;SDS011;5112;54.088;13.446;2024-03-08T19:54:16;9.80;;;8.80;;
10142;SDS011;5112;54.088;13.446;2024-03-08T20:04:17;10.47;;;7.20;;
10142;SDS011;5112;54.088;13.446;2024-03-08T20:14:22;10.83;;;6.10;;
10142;SDS011;5112;54.088;13.446;2024-03-08T20:24:25;9.50;;;7.53;;
10142;SDS011;5112;54.088;13.446;2024-03-08T20:34:28;8.93;;;7.73;;
10142;SDS011;5112;54.088;13.446;2024-03-08T20:44:30;7.80;;;7.00;;
10142;SDS011;5112;54.088;13.446;2024-03-08T20:54:33;6.40;;;5.13;;
10142;SDS011;5112;54.088;13.446;2024-03-08T21:04:36;6.63;;;4.63;;
10142;SDS011;5112;54.088;13.446;2024-03-08T21:14:42;6.13;;;5.00;;
10142;SDS011;5112;54.088;13.446;2024-03-08T21:24:43;4.83;;;3.63;;
10142;SDS011;5112;54.088;13.446;2024-03-08T21:34:46;4.37;;;3.97;;
10142;SDS011;5112;54.088;13.446;2024-03-08T21:44:48;6.07;;;5.00;;
10142;SDS011;5112;54.088;13.446;2024-03-08T21:54:52;6.27;;;4.70;;
10142;SDS011;5112;54.088;13.446;2024-03-08T22:04:54;7.37;;;5.27;;
10142;SDS011;5112;54.088;13.446;2024-03-08T22:14:57;7.37;;;4.87;;
10142;SDS011;5112;54.088;13.446;2024-03-08T22:24:59;5.93;;;4.10;;
10142;SDS011;5112;54.088;13.446;2024-03-08T22:35:02;5.40;;;4.30;;
10142;SDS011;5112;54.088;13.446;2024-03-08T22:45:04;7.17;;;5.10;;
10142;SDS011;5112;54.088;13.446;2024-03-08T22:55:08;8.57;;;6.50;;
10142;SDS011;5112;54.088;13.446;2024-03-08T23:05:09;8.63;;;5.57;;
10142;SDS011;5112;54.088;13.446;2024-03-08T23:15:16;10.53;;;6.33;;
10142;SDS011;5112;54.088;13.446;2024-03-08T23:25:18;9.47;;;5.97;;
10142;SDS011;5112;54.088;13.446;2024-03-08T23:35:24;10.00;;;6.90;;
10142;SDS011;5112;54.088;13.446;2024-03-08T23:45:27;13.17;;;8.60;;
10142;SDS011;5112;54.088;13.446;2024-03-08T23:55:31;10.47;;;8.50;;
